Time;durP1;ratioP1;P1;durP2;ratioP2;P2;SDS_P1;SDS_P2;PMS_P1;PMS_P2;Temp;Humidity;BMP_temperature;BMP_pressure;BME280_temperature;BME280_humidity;BME280_pressure;Samples;Min_cycle;Max_cycle;Signal;HPM_P1;HPM_P2
2022/01/07 00:02:01;;;;;;;;;;;;;;;16.35;44.39;101410.63;5046503;28;19979;-32
2022/01/07 00:04:28;;;;;;;;;;;;;;;16.32;43.65;101398.34;5047971;28;20320;-33
2022/01/07 00:06:54;;;;;;;;;;;;;;;16.33;44.62;101401.91;5045529;28;19939;-33
2022/01/07 00:09:22;;;;;;;;;;;;;;;16.31;43.53;101396.66;5043328;28;20232;-32
2022/01/07 00:11:48;;;;;;;;;;;;;;;16.29;44.58;101388.78;5041884;28;19932;-32
2022/01/07 00:14:14;;;;;;;;;;;;;;;16.28;44.86;101383.53;5048211;28;20287;-32
2022/01/07 00:16:41;;;;;;;;;;;;;;;16.27;44.76;101384.53;5045405;28;20214;-32
2022/01/07 00:19:07;;;;;;;;;;;;;;;16.26;45.04;101378.34;5048555;28;20356;-32
2022/01/07 00:21:33;;;;;;;;;;;;;;;16.24;44.00;101374.97;5042586;28;20012;-33
2022/01/07 00:24:00;;;;;;;;;;;;;;;16.24;44.60;101369.63;5045846;28;19948;-33
2022/01/07 00:26:26;;;;;;;;;;;;;;;16.23;43.91;101367.03;5043181;28;20015;-32
2022/01/07 00:28:53;;;;;;;;;;;;;;;16.22;44.95;101350.16;5048737;28;19924;-32
2022/01/07 00:31:19;;;;;;;;;;;;;;;16.22;45.19;101347.47;5046303;28;19944;-32
2022/01/07 00:33:45;;;;;;;;;;;;;;;16.22;45.42;101333.25;5047298;28;20041;-32
2022/01/07 00:36:12;;;;;;;;;;;;;;;16.23;45.63;101340.28;5044307;28;20237;-32
2022/01/07 00:38:38;;;;;;;;;;;;;;;16.20;44.92;101327.19;5046040;28;19936;-32
2022/01/07 00:41:05;;;;;;;;;;;;;;;16.19;44.83;101320.13;5046044;28;19943;-32
2022/01/07 00:43:31;;;;;;;;;;;;;;;16.19;44.95;101325.50;5045724;28;19932;-32
2022/01/07 00:45:58;;;;;;;;;;;;;;;16.20;45.66;101324.50;5042775;28;19929;-32
2022/01/07 00:48:24;;;;;;;;;;;;;;;16.18;44.96;101316.63;5048445;28;20389;-32
2022/01/07 00:50:50;;;;;;;;;;;;;;;16.17;45.65;101320.28;5042899;28;19943;-33
2022/01/07 00:53:17;;;;;;;;;;;;;;;16.17;44.64;101314.09;5047929;28;20627;-33
2022/01/07 00:55:43;;;;;;;;;;;;;;;16.17;45.42;101306.06;5044700;28;19929;-33
2022/01/07 00:58:10;;;;;;;;;;;;;;;16.17;44.89;101311.41;5044635;28;19924;-33
2022/01/07 01:00:37;;;;;;;;;;;;;;;16.16;45.32;101310.56;5045234;28;19925;-33
2022/01/07 01:03:03;;;;;;;;;;;;;;;16.16;45.35;101307.91;5046168;28;19929;-33
2022/01/07 01:05:30;;;;;;;;;;;;;;;16.14;44.42;101303.66;5044952;28;19933;-33
2022/01/07 01:07:56;;;;;;;;;;;;;;;16.12;45.25;101319.84;5045585;28;19935;-33
2022/01/07 01:10:24;;;;;;;;;;;;;;;16.11;45.20;101307.41;5043755;28;19939;-33
2022/01/07 01:12:52;;;;;;;;;;;;;;;16.09;45.21;101297.84;5043734;28;19983;-33
2022/01/07 01:15:21;;;;;;;;;;;;;;;16.09;44.96;101296.03;5045685;28;19959;-33
2022/01/07 01:17:48;;;;;;;;;;;;;;;16.07;44.71;101305.97;5047188;28;20451;-33
2022/01/07 01:20:15;;;;;;;;;;;;;;;16.06;44.82;101293.59;5047126;28;19935;-33
2022/01/07 01:22:42;;;;;;;;;;;;;;;16.06;44.83;101292.75;5047325;28;19960;-33
2022/01/07 01:25:08;;;;;;;;;;;;;;;16.05;45.15;101289.22;5046515;28;19970;-33
2022/01/07 01:27:35;;;;;;;;;;;;;;;16.03;45.31;101283.16;5048231;28;19933;-32
2022/01/07 01:30:04;;;;;;;;;;;;;;;16.03;45.46;101283.16;5046889;28;20328;-32
2022/01/07 01:32:30;;;;;;;;;;;;;;;16.03;44.93;101272.47;5044159;28;19939;-32
2022/01/07 01:34:57;;;;;;;;;;;;;;;16.02;45.62;101279.63;5043391;28;19943;-33
2022/01/07 01:37:23;;;;;;;;;;;;;;;16.03;45.26;101275.13;5046566;28;19944;-33
2022/01/07 01:39:50;;;;;;;;;;;;;;;15.98;45.46;101264.84;5046316;28;19959;-32
2022/01/07 01:42:16;;;;;;;;;;;;;;;15.98;45.38;101267.50;5042925;28;19933;-33
2022/01/07 01:44:42;;;;;;;;;;;;;;;15.98;45.99;101264.00;5043031;28;19928;-33
2022/01/07 01:47:09;;;;;;;;;;;;;;;15.95;45.08;101257.06;5043507;28;20479;-33
2022/01/07 01:49:35;;;;;;;;;;;;;;;15.95;45.56;101250.88;5045498;28;20638;-33
2022/01/07 01:52:02;;;;;;;;;;;;;;;15.94;45.76;101255.38;5044366;28;20587;-33
2022/01/07 01:54:28;;;;;;;;;;;;;;;15.94;45.95;101251.84;5044906;28;20223;-33
2022/01/07 01:56:55;;;;;;;;;;;;;;;15.92;45.70;101249.31;5045213;28;19928;-33
2022/01/07 01:59:25;;;;;;;;;;;;;;;15.91;46.12;101247.59;5045277;28;20341;-33
2022/01/07 02:01:52;;;;;;;;;;;;;;;15.91;45.40;101244.94;5044938;28;20312;-33
2022/01/07 02:04:19;;;;;;;;;;;;;;;15.92;45.31;101238.63;5043754;28;19931;-33
2022/01/07 02:06:46;;;;;;;;;;;;;;;15.91;45.40;101238.75;5044346;28;20020;-33
2022/01/07 02:09:12;;;;;;;;;;;;;;;15.90;45.58;101231.72;5044616;28;19932;-34
2022/01/07 02:11:39;;;;;;;;;;;;;;;15.90;46.16;101229.88;5045963;28;19925;-32
2022/01/07 02:14:06;;;;;;;;;;;;;;;15.90;46.20;101223.69;5043208;28;19929;-33
2022/01/07 02:16:32;;;;;;;;;;;;;;;15.87;45.67;101216.78;5043264;28;19947;-33
2022/01/07 02:18:58;;;;;;;;;;;;;;;15.88;45.61;101218.50;5044050;28;19925;-32
2022/01/07 02:21:25;;;;;;;;;;;;;;;15.88;45.87;101220.28;5040360;28;20028;-32
2022/01/07 02:23:52;;;;;;;;;;;;;;;15.87;45.71;101215.94;5040027;28;19925;-33
2022/01/07 02:26:19;;;;;;;;;;;;;;;15.86;45.70;101208.91;5045592;28;19931;-33
2022/01/07 02:28:46;;;;;;;;;;;;;;;15.86;46.10;101211.56;5043014;28;19929;-33
2022/01/07 02:31:12;;;;;;;;;;;;;;;15.86;46.62;101211.56;5043639;28;19932;-32
2022/01/07 02:33:39;;;;;;;;;;;;;;;15.84;45.49;101194.78;5043734;28;19940;-32
2022/01/07 02:36:06;;;;;;;;;;;;;;;15.83;45.87;101201.97;5042818;28;19932;-33
2022/01/07 02:38:33;;;;;;;;;;;;;;;15.83;45.71;101198.44;5044376;28;19929;-34
2022/01/07 02:41:00;;;;;;;;;;;;;;;15.82;45.79;101194.09;5044703;28;19925;-34
2022/01/07 02:43:26;;;;;;;;;;;;;;;15.82;46.10;101199.44;5043127;28;19925;-33
2022/01/07 02:45:52;;;;;;;;;;;;;;;15.83;46.26;101198.44;5043429;28;19928;-32
2022/01/07 02:48:20;;;;;;;;;;;;;;;15.79;45.99;101185.34;5041537;28;19933;-33
2022/01/07 02:50:46;;;;;;;;;;;;;;;15.79;46.12;101173.81;5044255;28;19931;-33
2022/01/07 02:53:13;;;;;;;;;;;;;;;15.80;45.80;101180.88;5044626;28;19935;-33
2022/01/07 02:55:39;;;;;;;;;;;;;;;15.78;45.67;101178.31;5043843;28;20347;-33
2022/01/07 02:58:07;;;;;;;;;;;;;;;15.76;46.47;101169.59;5045967;28;19924;-33
2022/01/07 03:00:33;;;;;;;;;;;;;;;15.76;45.50;101176.78;5045578;28;20322;-33
2022/01/07 03:03:00;;;;;;;;;;;;;;;15.74;46.14;101176.88;5045722;28;19928;-33
2022/01/07 03:05:27;;;;;;;;;;;;;;;15.73;45.87;101172.53;5044474;28;19933;-33
2022/01/07 03:07:54;;;;;;;;;;;;;;;15.71;45.85;101165.59;5044657;28;20383;-33
2022/01/07 03:10:23;;;;;;;;;;;;;;;15.70;46.42;101169.25;5040521;28;19970;-32
2022/01/07 03:12:49;;;;;;;;;;;;;;;15.70;45.75;101169.25;5041745;28;19931;-32
2022/01/07 03:15:16;;;;;;;;;;;;;;;15.67;46.33;101165.00;5041442;28;19937;-33
2022/01/07 03:17:42;;;;;;;;;;;;;;;15.68;46.63;101164.06;5044102;28;19931;-33
2022/01/07 03:20:11;;;;;;;;;;;;;;;15.67;45.60;101166.84;5042371;28;19929;-33
2022/01/07 03:22:37;;;;;;;;;;;;;;;15.66;46.85;101168.66;5042193;28;19933;-32
2022/01/07 03:25:04;;;;;;;;;;;;;;;15.65;46.43;101166.13;5048068;28;19928;-32
2022/01/07 03:27:31;;;;;;;;;;;;;;;15.64;46.78;101159.91;5044293;28;20016;-33
2022/01/07 03:29:57;;;;;;;;;;;;;;;15.62;45.82;101156.50;5041840;28;19948;-32
2022/01/07 03:32:24;;;;;;;;;;;;;;;15.62;45.98;101148.50;5041537;28;19933;-32
2022/01/07 03:34:51;;;;;;;;;;;;;;;15.62;45.93;101151.16;5040329;28;19929;-32
2022/01/07 03:37:17;;;;;;;;;;;;;;;15.62;46.02;101151.16;5041940;28;19929;-33
2022/01/07 03:39:44;;;;;;;;;;;;;;;15.63;46.11;101144.00;5045336;28;20008;-33
2022/01/07 03:42:10;;;;;;;;;;;;;;;15.61;46.31;101141.47;5041781;28;19955;-33
2022/01/07 03:44:37;;;;;;;;;;;;;;;15.62;46.07;101140.47;5042706;28;20036;-33
2022/01/07 03:47:03;;;;;;;;;;;;;;;15.63;46.27;101135.97;5042732;28;19933;-32
2022/01/07 03:49:30;;;;;;;;;;;;;;;15.62;46.35;101129.78;5042327;28;20269;-33
2022/01/07 03:51:56;;;;;;;;;;;;;;;15.62;47.25;101132.47;5045251;28;20352;-33
2022/01/07 03:54:22;;;;;;;;;;;;;;;15.61;46.07;101122.75;5043746;28;20442;-33
2022/01/07 03:56:49;;;;;;;;;;;;;;;15.60;46.22;101115.75;5043007;28;19940;-32
2022/01/07 03:59:15;;;;;;;;;;;;;;;15.61;47.22;101127.28;5040838;28;19933;-32
2022/01/07 04:01:41;;;;;;;;;;;;;;;15.58;46.03;101111.50;5042731;28;19929;-32
2022/01/07 04:04:08;;;;;;;;;;;;;;;15.59;46.15;101105.16;5043672;28;19932;-32
2022/01/07 04:06:35;;;;;;;;;;;;;;;15.59;47.30;101099.81;5041029;28;19952;-32
2022/01/07 04:09:01;;;;;;;;;;;;;;;15.63;46.41;101094.06;5041454;28;20014;-32
2022/01/07 04:11:28;;;;;;;;;;;;;;;15.74;46.11;101093.19;5041032;28;19963;-32
2022/01/07 04:13:55;;;;;;;;;;;;;;;15.84;46.53;101098.56;5043846;28;19941;-32
2022/01/07 04:16:21;;;;;;;;;;;;;;;15.92;45.91;101091.59;5041927;28;19929;-32
2022/01/07 04:18:47;;;;;;;;;;;;;;;16.04;46.81;101093.22;5045747;28;20363;-32
2022/01/07 04:21:14;;;;;;;;;;;;;;;16.15;47.14;101086.06;5041530;28;20211;-32
2022/01/07 04:23:40;;;;;;;;;;;;;;;16.25;47.61;101093.13;5044929;28;19933;-32
2022/01/07 04:26:06;;;;;;;;;;;;;;;16.37;47.50;101077.00;5043390;28;19935;-32
2022/01/07 04:28:33;;;;;;;;;;;;;;;16.47;46.82;101077.84;5043391;28;20185;-33
2022/01/07 04:31:00;;;;;;;;;;;;;;;16.57;47.50;101077.88;5043980;28;20374;-33
2022/01/07 04:33:29;;;;;;;;;;;;;;;16.65;47.39;101068.16;5039935;28;19940;-33
2022/01/07 04:35:55;;;;;;;;;;;;;;;16.73;47.27;101068.34;5037602;28;19933;-33
2022/01/07 04:38:22;;;;;;;;;;;;;;;16.80;46.68;101060.56;5044862;28;20339;-33
2022/01/07 04:40:48;;;;;;;;;;;;;;;16.88;46.18;101054.53;5040134;28;21315;-33
2022/01/07 04:43:15;;;;;;;;;;;;;;;16.94;46.56;101054.81;5038790;28;20025;-33
2022/01/07 04:45:41;;;;;;;;;;;;;;;16.99;46.43;101057.91;5044897;28;19987;-33
2022/01/07 04:48:08;;;;;;;;;;;;;;;17.06;46.82;101060.03;5046711;28;19931;-33
2022/01/07 04:50:35;;;;;;;;;;;;;;;17.10;46.67;101048.06;5046598;28;19929;-32
2022/01/07 04:53:01;;;;;;;;;;;;;;;17.12;45.72;101048.75;5049007;28;19929;-32
2022/01/07 04:55:29;;;;;;;;;;;;;;;17.15;46.03;101035.91;5046794;28;20043;-32
2022/01/07 04:57:56;;;;;;;;;;;;;;;17.17;46.04;101030.44;5044404;28;19925;-33
2022/01/07 05:00:24;;;;;;;;;;;;;;;17.16;45.52;101026.88;5046381;28;19932;-33
2022/01/07 05:02:50;;;;;;;;;;;;;;;17.16;45.78;101031.41;5048673;28;20062;-33
2022/01/07 05:05:17;;;;;;;;;;;;;;;17.13;45.05;101040.59;5046022;28;19990;-33
2022/01/07 05:07:44;;;;;;;;;;;;;;;17.10;45.56;101040.84;5045746;28;19975;-33
2022/01/07 05:10:11;;;;;;;;;;;;;;;17.02;44.97;101040.72;5045268;28;19929;-33
2022/01/07 05:12:38;;;;;;;;;;;;;;;17.01;45.53;101044.41;5044763;28;20020;-33
2022/01/07 05:15:05;;;;;;;;;;;;;;;16.94;45.80;101035.25;5043139;28;19939;-33
2022/01/07 05:17:32;;;;;;;;;;;;;;;16.90;45.20;101033.84;5053255;28;20330;-33
2022/01/07 05:19:59;;;;;;;;;;;;;;;16.85;45.95;101034.25;5043045;28;19929;-33
2022/01/07 05:22:25;;;;;;;;;;;;;;;16.82;45.53;101028.34;5044839;28;19940;-33
2022/01/07 05:24:51;;;;;;;;;;;;;;;16.78;45.32;101046.50;5045429;28;19964;-33
2022/01/07 05:27:18;;;;;;;;;;;;;;;16.75;45.15;101041.44;5042136;28;19935;-33
2022/01/07 05:29:44;;;;;;;;;;;;;;;16.71;45.44;101048.84;5047685;28;19933;-34
2022/01/07 05:32:10;;;;;;;;;;;;;;;16.67;45.77;101041.25;5043350;28;19936;-34
2022/01/07 05:34:37;;;;;;;;;;;;;;;16.66;45.55;101039.56;5041924;28;19940;-33
2022/01/07 05:37:04;;;;;;;;;;;;;;;16.62;45.84;101049.69;5046628;28;20145;-33
2022/01/07 05:39:30;;;;;;;;;;;;;;;16.58;46.27;101058.16;5043014;28;20028;-34
2022/01/07 05:41:59;;;;;;;;;;;;;;;16.57;46.31;101060.00;5045510;28;19929;-33
2022/01/07 05:44:25;;;;;;;;;;;;;;;16.52;46.38;101059.53;5046548;28;20358;-33
2022/01/07 05:46:52;;;;;;;;;;;;;;;16.50;45.65;101056.16;5041581;28;20342;-33
2022/01/07 05:49:18;;;;;;;;;;;;;;;16.46;45.85;101050.25;5048282;28;19931;-33
2022/01/07 05:51:45;;;;;;;;;;;;;;;16.44;46.10;101054.03;5043851;28;20502;-33
2022/01/07 05:54:11;;;;;;;;;;;;;;;16.42;46.94;101053.34;5043125;28;19925;-33
2022/01/07 05:56:38;;;;;;;;;;;;;;;16.41;47.03;101057.00;5043870;28;19929;-33
2022/01/07 05:59:04;;;;;;;;;;;;;;;16.38;46.65;101062.63;5041776;28;19925;-33
2022/01/07 06:01:31;;;;;;;;;;;;;;;16.36;46.31;101051.19;5046420;28;20874;-33
2022/01/07 06:03:57;;;;;;;;;;;;;;;16.33;46.83;101043.47;5043505;28;20546;-33
2022/01/07 06:06:24;;;;;;;;;;;;;;;16.31;46.17;101051.63;5044596;28;19936;-33
2022/01/07 06:08:50;;;;;;;;;;;;;;;16.28;47.17;101041.19;5043139;28;19925;-33
2022/01/07 06:11:17;;;;;;;;;;;;;;;16.27;46.27;101043.00;5044214;28;19932;-34
2022/01/07 06:13:44;;;;;;;;;;;;;;;16.25;46.35;101045.00;5046036;28;19925;-33
2022/01/07 06:16:10;;;;;;;;;;;;;;;16.23;47.02;101044.28;5044485;28;19935;-33
2022/01/07 06:18:50;;;;;;;;;;;;;;;16.23;47.01;101054.13;5042825;28;20289;-33
2022/01/07 06:21:17;;;;;;;;;;;;;;;16.21;47.22;101048.94;5045796;28;19964;-33
2022/01/07 06:23:43;;;;;;;;;;;;;;;16.18;46.54;101045.69;5044833;28;19932;-33
2022/01/07 06:26:10;;;;;;;;;;;;;;;16.17;47.20;101055.53;5042317;28;19924;-34
2022/01/07 06:28:36;;;;;;;;;;;;;;;16.17;46.62;101050.19;5046091;28;19933;-33
2022/01/07 06:31:02;;;;;;;;;;;;;;;16.15;46.40;101046.78;5042621;28;19925;-33
2022/01/07 06:33:29;;;;;;;;;;;;;;;16.14;46.91;101049.59;5040319;28;20236;-33
2022/01/07 06:35:55;;;;;;;;;;;;;;;16.12;46.96;101046.22;5045434;28;19931;-33
2022/01/07 06:38:21;;;;;;;;;;;;;;;16.10;46.08;101038.34;5041485;28;20456;-33
2022/01/07 06:40:48;;;;;;;;;;;;;;;16.08;46.08;101043.00;5038294;28;19928;-33
2022/01/07 06:43:14;;;;;;;;;;;;;;;16.07;46.43;101048.44;5046507;28;19925;-34
2022/01/07 06:45:41;;;;;;;;;;;;;;;16.06;47.11;101052.97;5040326;28;19932;-33
2022/01/07 06:48:07;;;;;;;;;;;;;;;16.03;47.43;101054.06;5045003;28;19939;-33
2022/01/07 06:50:34;;;;;;;;;;;;;;;16.02;46.72;101048.88;5041329;28;19925;-33
2022/01/07 06:53:00;;;;;;;;;;;;;;;16.02;47.16;101038.16;5040355;28;19932;-33
2022/01/07 06:55:47;;;;;;;;;;;;;;;16.02;47.47;101056.88;5041816;28;19929;-33
2022/01/07 06:58:13;;;;;;;;;;;;;;;16.00;47.21;101043.66;5041550;28;19935;-33
2022/01/07 07:00:39;;;;;;;;;;;;;;;15.98;47.27;101042.94;5039128;28;19925;-33
2022/01/07 07:03:10;;;;;;;;;;;;;;;15.98;47.28;101058.13;5043480;28;19929;-33
2022/01/07 07:05:37;;;;;;;;;;;;;;;15.98;46.75;101044.78;5039034;28;19935;-33
2022/01/07 07:08:03;;;;;;;;;;;;;;;15.96;47.47;101033.34;5043700;28;19931;-32
2022/01/07 07:10:29;;;;;;;;;;;;;;;15.97;47.10;101048.44;5042565;28;20466;-32
2022/01/07 07:12:56;;;;;;;;;;;;;;;15.95;47.09;101045.03;5040775;28;19925;-32
2022/01/07 07:15:22;;;;;;;;;;;;;;;15.95;47.64;101048.53;5042524;28;19925;-32
2022/01/07 07:17:49;;;;;;;;;;;;;;;15.94;47.68;101044.19;5039194;28;20036;-32
2022/01/07 07:20:15;;;;;;;;;;;;;;;15.96;47.99;101046.72;5040500;28;19929;-32
2022/01/07 07:22:41;;;;;;;;;;;;;;;15.94;46.90;101043.34;5043753;28;19964;-32
2022/01/07 07:25:08;;;;;;;;;;;;;;;15.94;46.64;101051.38;5039041;28;19928;-32
2022/01/07 07:27:36;;;;;;;;;;;;;;;15.92;47.21;101050.63;5043661;28;19933;-32
2022/01/07 07:30:07;;;;;;;;;;;;;;;15.91;47.41;101049.81;5039970;28;19931;-32
2022/01/07 07:32:34;;;;;;;;;;;;;;;15.91;46.73;101060.50;5040552;28;19933;-32
2022/01/07 07:35:04;;;;;;;;;;;;;;;15.90;46.92;101056.13;5042781;28;20290;-32
2022/01/07 07:37:31;;;;;;;;;;;;;;;15.88;47.00;101050.09;5040542;28;19925;-32
2022/01/07 07:39:57;;;;;;;;;;;;;;;15.88;46.59;101050.09;5040518;28;20036;-32
2022/01/07 07:42:23;;;;;;;;;;;;;;;15.86;46.57;101052.03;5046435;28;19947;-32
2022/01/07 07:44:50;;;;;;;;;;;;;;;15.86;46.58;101049.38;5043565;28;19924;-32
2022/01/07 07:47:16;;;;;;;;;;;;;;;15.85;46.80;101047.69;5042627;28;19925;-32
2022/01/07 07:49:43;;;;;;;;;;;;;;;15.85;47.73;101044.16;5041475;28;19933;-33
2022/01/07 07:52:09;;;;;;;;;;;;;;;15.84;48.66;101042.44;5038035;28;19925;-32
2022/01/07 07:54:35;;;;;;;;;;;;;;;15.85;48.01;101041.50;5042433;28;20624;-32
2022/01/07 07:57:02;;;;;;;;;;;;;;;15.84;47.94;101035.31;5040020;28;19936;-32
2022/01/07 07:59:28;;;;;;;;;;;;;;;15.84;47.33;101029.09;5038602;28;20132;-33
2022/01/07 08:01:55;;;;;;;;;;;;;;;15.82;47.10;101034.56;5040276;28;19932;-33
2022/01/07 08:04:21;;;;;;;;;;;;;;;15.82;47.10;101031.91;5039976;28;20228;-33
2022/01/07 08:06:48;;;;;;;;;;;;;;;15.81;47.15;101038.25;5035913;28;20356;-32
2022/01/07 08:09:15;;;;;;;;;;;;;;;15.82;47.15;101042.59;5042478;28;19928;-32
2022/01/07 08:11:53;;;;;;;;;;;;;;;15.79;47.03;101032.16;5037403;28;20310;-32
2022/01/07 08:17:05;;;;;;;;;;;;;;;15.77;47.14;101052.84;5039958;28;19924;-33
2022/01/07 08:19:32;;;;;;;;;;;;;;;15.75;48.02;101055.63;5041481;28;20015;-33
2022/01/07 08:21:59;;;;;;;;;;;;;;;15.76;47.33;101061.84;5045165;28;19928;-33
2022/01/07 08:24:25;;;;;;;;;;;;;;;15.75;47.91;101052.97;5045763;28;20019;-33
2022/01/07 08:26:52;;;;;;;;;;;;;;;15.74;48.01;101056.63;5043925;28;19949;-33
2022/01/07 08:29:20;;;;;;;;;;;;;;;15.73;47.37;101051.44;5045483;28;19932;-33
2022/01/07 08:36:59;;;;;;;;;;;;;;;15.72;47.47;101042.56;5044789;28;20023;-33
2022/01/07 08:39:25;;;;;;;;;;;;;;;15.70;47.84;101055.19;5041250;28;19934;-33
2022/01/07 08:41:52;;;;;;;;;;;;;;;15.71;47.31;101050.69;5042302;28;20023;-33
2022/01/07 08:44:20;;;;;;;;;;;;;;;15.69;47.38;101042.81;5044419;28;19943;-33
2022/01/07 08:46:46;;;;;;;;;;;;;;;15.68;47.27;101042.97;5044363;28;19925;-33
2022/01/07 08:49:13;;;;;;;;;;;;;;;15.68;48.15;101040.28;5049551;28;20283;-33
2022/01/07 08:51:40;;;;;;;;;;;;;;;15.70;49.18;101041.84;5042311;28;19931;-33
2022/01/07 08:54:07;;;;;;;;;;;;;;;15.71;48.68;101046.19;5045887;28;20535;-33
2022/01/07 08:56:34;;;;;;;;;;;;;;;15.71;47.83;101048.03;5047786;28;20509;-33
2022/01/07 08:59:00;;;;;;;;;;;;;;;15.73;48.37;101046.91;5044778;28;20019;-32
2022/01/07 09:01:28;;;;;;;;;;;;;;;15.75;49.05;101046.78;5044433;28;19940;-32
2022/01/07 09:03:55;;;;;;;;;;;;;;;15.77;47.61;101050.19;5045598;28;19925;-32
2022/01/07 09:06:21;;;;;;;;;;;;;;;15.79;48.60;101048.19;5040997;28;20334;-32
2022/01/07 09:08:48;;;;;;;;;;;;;;;15.80;48.88;101052.59;5046720;28;20019;-32
2022/01/07 09:11:15;;;;;;;;;;;;;;;15.82;47.55;101047.94;5045774;28;19925;-32
2022/01/07 09:13:41;;;;;;;;;;;;;;;15.82;48.05;101047.09;5039593;28;20023;-32
2022/01/07 09:16:07;;;;;;;;;;;;;;;15.85;47.48;101026.28;5041565;28;20294;-32
2022/01/07 09:18:34;;;;;;;;;;;;;;;15.88;47.46;101025.16;5042111;28;19960;-33
2022/01/07 09:21:00;;;;;;;;;;;;;;;15.89;48.24;101018.84;5044250;28;19931;-33
2022/01/07 09:23:27;;;;;;;;;;;;;;;15.91;47.24;101014.22;5045051;28;20380;-33
2022/01/07 09:25:53;;;;;;;;;;;;;;;15.94;48.00;101016.63;5044392;28;19931;-33
2022/01/07 09:28:20;;;;;;;;;;;;;;;15.94;47.24;101022.81;5044234;28;20465;-33
2022/01/07 09:30:46;;;;;;;;;;;;;;;15.98;47.65;101023.38;5044358;28;19978;-33
2022/01/07 09:33:13;;;;;;;;;;;;;;;16.00;47.51;101024.06;5040665;28;19931;-33
2022/01/07 09:35:39;;;;;;;;;;;;;;;16.07;47.63;101027.91;5046404;28;20007;-33
2022/01/07 09:38:05;;;;;;;;;;;;;;;16.10;47.94;101034.81;5042397;28;19928;-33
2022/01/07 09:40:32;;;;;;;;;;;;;;;16.10;47.59;101024.97;5045732;28;20347;-33
2022/01/07 09:42:59;;;;;;;;;;;;;;;16.11;47.32;101031.16;5044813;28;19933;-33
2022/01/07 09:45:26;;;;;;;;;;;;;;;16.13;46.88;101031.88;5042575;28;19933;-33
2022/01/07 09:47:54;;;;;;;;;;;;;;;16.14;46.86;101023.72;5042960;28;19935;-42
2022/01/07 09:50:20;;;;;;;;;;;;;;;16.15;46.18;101043.28;5038725;28;19937;-41
2022/01/07 09:52:47;;;;;;;;;;;;;;;16.15;46.24;101030.75;5040364;28;19937;-43
2022/01/07 09:55:13;;;;;;;;;;;;;;;16.15;46.85;101027.22;5043530;28;20012;-43
2022/01/07 09:57:40;;;;;;;;;;;;;;;16.13;47.04;101027.38;5040984;28;20361;-42
2022/01/07 10:00:08;;;;;;;;;;;;;;;16.10;45.99;101016.94;5042342;28;19929;-43
2022/01/07 10:02:34;;;;;;;;;;;;;;;16.09;46.04;101028.63;5044786;28;20027;-44
2022/01/07 10:05:14;;;;;;;;;;;;;;;16.08;46.28;101028.75;5038516;28;20032;-43
2022/01/07 10:07:41;;;;;;;;;;;;;;;16.05;46.30;101027.22;5042192;28;19925;-44
2022/01/07 10:10:16;;;;;;;;;;;;;;;16.06;46.18;101022.72;5040520;28;19931;-44
2022/01/07 10:12:52;;;;;;;;;;;;;;;16.09;46.79;101028.63;5044971;28;19925;-43
2022/01/07 10:15:20;;;;;;;;;;;;;;;16.14;46.96;101028.22;5040329;28;19936;-44
2022/01/07 10:17:54;;;;;;;;;;;;;;;16.21;47.07;101032.88;5044173;28;20019;-42
2022/01/07 10:20:25;;;;;;;;;;;;;;;16.25;46.74;101031.63;5038302;28;20549;-42
2022/01/07 10:23:12;;;;;;;;;;;;;;;16.32;46.95;101036.41;5044613;28;20027;-41
2022/01/07 10:25:48;;;;;;;;;;;;;;;16.37;46.30;101031.50;5044136;28;19939;-41
2022/01/07 10:28:18;;;;;;;;;;;;;;;16.39;46.18;101032.22;5042019;28;19925;-41
2022/01/07 10:30:46;;;;;;;;;;;;;;;16.41;45.93;101019.56;5045720;28;19925;-42
2022/01/07 10:33:26;;;;;;;;;;;;;;;16.44;45.83;101029.94;5043543;28;19925;-43
2022/01/07 10:35:53;;;;;;;;;;;;;;;16.48;45.82;101024.22;5040999;28;20243;-42
2022/01/07 10:38:22;;;;;;;;;;;;;;;16.50;45.91;101024.06;5049259;28;19931;-42
2022/01/07 10:40:50;;;;;;;;;;;;;;;16.50;45.13;101024.91;5042194;28;20011;-42
2022/01/07 10:43:22;;;;;;;;;;;;;;;16.52;45.03;101024.75;5041015;28;20264;-41
2022/01/07 10:45:50;;;;;;;;;;;;;;;16.52;44.97;101014.03;5041431;28;19964;-42
2022/01/07 10:48:17;;;;;;;;;;;;;;;16.51;45.14;101010.53;5040703;28;19925;-41
2022/01/07 10:50:48;;;;;;;;;;;;;;;16.51;44.83;101010.53;5039120;28;19929;-41
2022/01/07 10:53:14;;;;;;;;;;;;;;;16.49;45.27;101017.88;5044037;28;19925;-41
2022/01/07 10:55:55;;;;;;;;;;;;;;;16.48;45.54;101005.47;5039750;28;19935;-41
2022/01/07 10:58:22;;;;;;;;;;;;;;;16.49;45.24;101006.31;5040649;28;19935;-41
2022/01/07 11:00:48;;;;;;;;;;;;;;;16.47;46.00;101005.59;5043957;28;19924;-41
2022/01/07 11:03:15;;;;;;;;;;;;;;;16.45;46.22;101004.91;5046952;28;20244;-41
2022/01/07 11:05:42;;;;;;;;;;;;;;;16.47;46.23;101002.94;5039052;28;19976;-42
2022/01/07 11:08:08;;;;;;;;;;;;;;;16.49;46.37;101007.16;5040095;28;20257;-40
2022/01/07 11:10:36;;;;;;;;;;;;;;;16.53;46.75;100997.88;5042779;28;19925;-42
2022/01/07 11:13:03;;;;;;;;;;;;;;;16.56;46.69;101001.25;5039814;28;20016;-39
2022/01/07 11:15:29;;;;;;;;;;;;;;;16.60;46.33;100983.91;5040407;28;20339;-41
2022/01/07 11:17:55;;;;;;;;;;;;;;;16.63;46.06;100994.34;5040396;28;20004;-42
2022/01/07 11:20:24;;;;;;;;;;;;;;;16.68;46.97;100998.31;5040213;28;19928;-41
2022/01/07 11:22:51;;;;;;;;;;;;;;;16.71;46.57;100994.50;5040112;28;20154;-42
2022/01/07 11:25:17;;;;;;;;;;;;;;;16.70;45.40;101009.69;5040495;28;19965;-43
2022/01/07 11:27:56;;;;;;;;;;;;;;;16.71;45.56;101005.19;5041248;28;19931;-43
2022/01/07 11:30:26;;;;;;;;;;;;;;;16.70;45.21;101006.19;5044047;28;19932;-44
2022/01/07 11:32:53;;;;;;;;;;;;;;;16.69;45.59;101018.72;5041398;28;19986;-42
2022/01/07 11:35:19;;;;;;;;;;;;;;;16.68;45.91;101013.50;5040330;28;19933;-42
2022/01/07 11:37:53;;;;;;;;;;;;;;;16.67;45.12;101020.69;5039050;28;19952;-44
2022/01/07 11:40:28;;;;;;;;;;;;;;;16.67;45.85;101020.69;5039325;28;19959;-43
2022/01/07 11:42:56;;;;;;;;;;;;;;;16.63;45.63;101024.63;5039691;28;19999;-40
2022/01/07 11:45:37;;;;;;;;;;;;;;;16.60;45.24;101019.53;5042893;28;19929;-42
2022/01/07 11:48:20;;;;;;;;;;;;;;;16.58;45.64;101015.34;5043691;28;19924;-42
2022/01/07 11:50:54;;;;;;;;;;;;;;;16.55;45.92;101008.44;5040455;28;19925;-42
2022/01/07 11:53:35;;;;;;;;;;;;;;;16.53;45.58;101005.91;5044197;28;19982;-41
2022/01/07 11:56:03;;;;;;;;;;;;;;;16.51;45.67;101002.50;5043096;28;20020;-43
2022/01/07 11:58:46;;;;;;;;;;;;;;;16.49;46.29;101001.81;5047356;28;19933;-41
2022/01/07 12:01:25;;;;;;;;;;;;;;;16.49;46.13;101003.66;5045630;28;19925;-44
2022/01/07 12:03:53;;;;;;;;;;;;;;;16.48;46.61;101001.94;5046266;28;20432;-42
2022/01/07 12:06:26;;;;;;;;;;;;;;;16.47;47.06;100990.38;5042499;28;19928;-42
2022/01/07 12:08:58;;;;;;;;;;;;;;;16.47;46.60;100984.19;5048653;28;20015;-43
2022/01/07 12:11:26;;;;;;;;;;;;;;;16.48;46.59;100986.75;5043656;28;20007;-43
2022/01/07 12:13:52;;;;;;;;;;;;;;;16.49;46.75;100991.13;5048469;28;19925;-39
2022/01/07 12:16:19;;;;;;;;;;;;;;;16.49;46.98;101004.50;5045248;28;19936;-44
2022/01/07 12:18:46;;;;;;;;;;;;;;;16.50;47.02;101010.69;5045137;28;19925;-44
2022/01/07 12:21:12;;;;;;;;;;;;;;;16.49;46.81;101001.81;5043515;28;19980;-43
2022/01/07 12:23:42;;;;;;;;;;;;;;;16.49;46.28;101000.97;5043977;28;20269;-44
2022/01/07 12:26:09;;;;;;;;;;;;;;;16.49;46.57;101000.97;5045237;28;19928;-43
2022/01/07 12:28:41;;;;;;;;;;;;;;;16.48;46.30;100993.91;5047500;28;20007;-43
2022/01/07 12:31:08;;;;;;;;;;;;;;;16.47;47.47;100997.56;5044097;28;19933;-44
2022/01/07 12:33:35;;;;;;;;;;;;;;;16.47;46.44;101009.13;5044037;28;19925;-44
2022/01/07 12:36:01;;;;;;;;;;;;;;;16.46;47.03;101020.81;5048037;28;19929;-43
2022/01/07 12:38:28;;;;;;;;;;;;;;;16.45;46.67;101011.09;5047283;28;20003;-43
2022/01/07 12:40:56;;;;;;;;;;;;;;;16.44;46.71;101009.41;5043464;28;19929;-42
2022/01/07 12:43:28;;;;;;;;;;;;;;;16.43;47.10;101006.88;5049332;28;19929;-44
2022/01/07 12:45:59;;;;;;;;;;;;;;;16.41;47.12;101007.00;5043740;28;19939;-43